Time;durP1;ratioP1;P1;durP2;ratioP2;P2;SDS_P1;SDS_P2;PMS_P1;PMS_P2;Temp;Humidity;BMP_temperature;BMP_pressure;BME280_temperature;BME280_humidity;BME280_pressure;Samples;Min_cycle;Max_cycle;Signal;HPM_P1;HPM_P2
2023/07/24 00:00:40;;;;;;;8.10;6.93;;;;;;;21.98;100.00;95505.38;5020893;28;20021;-66
2023/07/24 00:03:05;;;;;;;9.07;7.03;;;;;;;21.99;100.00;95496.28;5017157;28;20034;-66
2023/07/24 00:05:31;;;;;;;9.13;6.40;;;;;;;22.00;100.00;95487.25;5046010;28;20026;-66
2023/07/24 00:07:56;;;;;;;8.77;7.32;;;;;;;21.97;100.00;95494.88;5021258;28;20021;-66
2023/07/24 00:10:21;;;;;;;9.05;6.60;;;;;;;21.89;100.00;95502.16;5020138;28;20108;-66
2023/07/24 00:12:47;;;;;;;7.85;6.35;;;;;;;21.84;100.00;95493.13;5018913;28;20089;-66
2023/07/24 00:15:12;;;;;;;9.43;6.90;;;;;;;21.82;100.00;95484.50;5013566;28;20041;-66
2023/07/24 00:17:37;;;;;;;7.65;6.95;;;;;;;21.84;100.00;95475.19;5021196;28;20057;-66
2023/07/24 00:20:03;;;;;;;7.72;6.93;;;;;;;21.85;100.00;95471.47;5024622;28;20021;-66
2023/07/24 00:22:29;;;;;;;10.50;6.95;;;;;;;21.81;100.00;95470.25;5019650;28;20079;-66
2023/07/24 00:24:54;;;;;;;7.97;6.68;;;;;;;21.78;100.00;95467.22;5019060;28;20021;-66
2023/07/24 00:27:19;;;;;;;11.00;7.32;;;;;;;21.73;100.00;95471.34;5019812;28;20049;-66
2023/07/24 00:29:45;;;;;;;10.82;6.75;;;;;;;21.72;100.00;95464.34;5022952;28;20029;-66
2023/07/24 00:32:11;;;;;;;7.68;6.45;;;;;;;21.65;100.00;95460.09;5019458;28;20109;-66
2023/07/24 00:34:37;;;;;;;8.95;7.20;;;;;;;21.59;100.00;95459.88;5017829;28;20029;-66
2023/07/24 00:37:03;;;;;;;9.18;6.90;;;;;;;21.57;100.00;95455.81;5019204;28;20490;-66
2023/07/24 00:39:29;;;;;;;7.40;6.65;;;;;;;21.55;100.00;95457.84;5037150;28;20030;-66
2023/07/24 00:41:54;;;;;;;7.50;6.75;;;;;;;21.51;100.00;95456.66;5020699;28;20623;-66
2023/07/24 00:44:20;;;;;;;8.07;6.97;;;;;;;21.50;100.00;95434.44;5020795;28;20071;-66
2023/07/24 00:46:46;;;;;;;7.40;6.65;;;;;;;21.45;100.00;95427.03;5020945;28;20037;-66
2023/07/24 00:49:12;;;;;;;8.82;7.18;;;;;;;21.49;100.00;95416.72;5016810;28;20036;-65
2023/07/24 00:51:38;;;;;;;7.50;6.78;;;;;;;21.40;100.00;95413.47;5014608;28;20022;-65
2023/07/24 00:54:05;;;;;;;8.38;7.32;;;;;;;21.35;100.00;95399.94;5022928;28;20121;-65
2023/07/24 00:56:32;;;;;;;7.38;6.28;;;;;;;21.27;100.00;95406.38;5025677;28;20030;-65
2023/07/24 00:58:58;;;;;;;8.73;6.50;;;;;;;21.14;100.00;95409.13;5020805;28;20030;-66
2023/07/24 01:01:25;;;;;;;8.00;6.38;;;;;;;21.09;100.00;95404.41;5018846;28;20076;-65
2023/07/24 01:03:51;;;;;;;8.00;7.20;;;;;;;21.07;100.00;95403.00;5021265;28;20021;-65
2023/07/24 01:06:17;;;;;;;8.27;6.75;;;;;;;21.01;100.00;95402.81;5022061;28;20017;-66
2023/07/24 01:08:42;;;;;;;7.47;6.50;;;;;;;21.03;100.00;95402.59;5019928;28;20094;-66
2023/07/24 01:11:29;;;;;;;7.88;7.13;;;;;;;20.99;100.00;95401.38;5022547;28;20030;-65
2023/07/24 01:14:10;;;;;;;8.23;6.43;;;;;;;20.96;100.00;95393.78;5021814;28;20033;-66
2023/07/24 01:16:42;;;;;;;6.97;6.28;;;;;;;20.93;100.00;95395.03;5017492;28;20103;-66
2023/07/24 01:19:45;;;;;;;7.13;6.43;;;;;;;20.90;100.00;95390.13;5021095;28;20425;-66
2023/07/24 01:22:39;;;;;;;6.90;6.32;;;;;;;20.83;100.00;95381.31;5017657;28;20033;-66
2023/07/24 01:25:14;;;;;;;7.22;6.47;;;;;;;20.81;100.00;95384.19;5014764;28;20037;-66
2023/07/24 01:27:41;;;;;;;;;;;;;;;20.74;100.00;95376.16;5017894;28;20053;-66
2023/07/24 01:30:07;;;;;;;7.82;6.50;;;;;;;20.75;100.00;95368.97;5022251;28;19923;-66
2023/07/24 01:32:32;;;;;;;12.27;7.25;;;;;;;20.77;100.00;95369.56;5022068;28;20033;-66
2023/07/24 01:34:57;;;;;;;12.48;7.15;;;;;;;20.76;100.00;95368.75;5018235;28;20040;-66
2023/07/24 01:37:25;;;;;;;7.65;6.90;;;;;;;20.78;100.00;95363.19;5020004;28;20084;-66
2023/07/24 01:39:50;;;;;;;8.80;6.70;;;;;;;20.78;100.00;95357.84;5021883;28;20482;-66
2023/07/24 01:42:17;;;;;;;6.75;6.05;;;;;;;20.81;100.00;95360.13;5016722;28;20052;-66
2023/07/24 01:44:42;;;;;;;9.10;6.47;;;;;;;20.85;100.00;95347.94;5018163;28;20018;-66
2023/07/24 01:47:07;;;;;;;7.65;7.00;;;;;;;20.87;100.00;95353.91;5016484;28;20040;-66
2023/07/24 01:49:33;;;;;;;10.25;6.75;;;;;;;20.83;100.00;95357.25;5020102;28;20076;-66
2023/07/24 01:51:58;;;;;;;7.80;7.00;;;;;;;20.79;100.00;95358.69;5018071;28;20036;-66
2023/07/24 01:54:24;;;;;;;7.43;6.68;;;;;;;20.74;100.00;95340.59;5024485;28;20036;-66
2023/07/24 01:56:49;;;;;;;7.28;6.57;;;;;;;20.74;100.00;95337.91;5018728;28;20041;-66
2023/07/24 01:59:14;;;;;;;7.28;6.57;;;;;;;20.83;100.00;95314.44;5019417;28;20034;-66
2023/07/24 02:01:40;;;;;;;7.18;6.47;;;;;;;20.84;100.00;95316.88;5020845;28;20072;-66
2023/07/24 02:04:06;;;;;;;9.45;6.43;;;;;;;20.72;100.00;95326.63;5003033;28;20817;-66
2023/07/24 02:06:31;;;;;;;7.20;6.50;;;;;;;20.60;100.00;95366.59;5000388;28;20028;-66
2023/07/24 02:08:57;;;;;;;7.30;6.60;;;;;;;20.49;100.00;95429.56;5019893;28;20060;-66
2023/07/24 02:11:22;;;;;;;9.88;6.50;;;;;;;20.39;100.00;95504.88;5017662;28;20060;-66
2023/07/24 02:13:47;;;;;;;8.18;6.68;;;;;;;20.35;100.00;95597.19;5017321;28;20070;-66
2023/07/24 02:16:13;;;;;;;14.90;7.28;;;;;;;20.58;100.00;95671.63;5016089;28;20075;-66
2023/07/24 02:18:43;;;;;;;9.63;8.63;;;;;;;20.80;100.00;95700.88;5012630;28;20021;-66
2023/07/24 02:21:09;;;;;;;14.32;9.30;;;;;;;21.28;100.00;95698.97;5016341;28;20517;-65
2023/07/24 02:23:35;;;;;;;9.77;8.60;;;;;;;21.51;100.00;95751.22;5016429;28;20021;-66
2023/07/24 02:26:01;;;;;;;9.68;8.68;;;;;;;21.50;100.00;95819.22;5017340;28;20030;-66
2023/07/24 02:28:26;;;;;;;9.55;8.00;;;;;;;21.37;100.00;95860.22;5018364;28;20091;-66
2023/07/24 02:30:55;;;;;;;10.70;8.45;;;;;;;21.20;100.00;95894.63;5019709;28;20017;-67
2023/07/24 02:33:22;;;;;;;12.25;8.15;;;;;;;21.04;100.00;95872.56;5021289;28;20163;-67
2023/07/24 02:35:49;;;;;;;11.23;9.10;;;;;;;20.22;100.00;95894.69;5013437;28;20481;-67
2023/07/24 02:38:14;;;;;;;12.10;9.48;;;;;;;19.78;100.00;95813.84;5015799;28;20021;-67
2023/07/24 02:40:40;;;;;;;14.63;9.40;;;;;;;19.78;100.00;95682.16;5018731;28;20028;-67
2023/07/24 02:43:06;;;;;;;10.25;8.55;;;;;;;19.68;100.00;95653.97;5016104;28;20032;-68
2023/07/24 02:45:34;;;;;;;11.45;7.97;;;;;;;19.63;100.00;95620.88;5014141;28;20017;-67
2023/07/24 02:48:01;;;;;;;8.45;7.45;;;;;;;19.57;100.00;95626.00;5016613;28;20503;-67
2023/07/24 02:50:27;;;;;;;14.82;8.40;;;;;;;19.49;100.00;95585.31;5020358;28;20026;-67
2023/07/24 02:52:52;;;;;;;14.50;8.80;;;;;;;19.37;100.00;95604.59;5019052;28;20026;-67
2023/07/24 02:55:17;;;;;;;14.48;9.02;;;;;;;19.31;100.00;95584.00;5017539;28;20033;-67
2023/07/24 02:57:43;;;;;;;13.68;8.95;;;;;;;19.36;100.00;95570.09;5011950;28;20129;-68
2023/07/24 03:00:09;;;;;;;9.85;8.18;;;;;;;19.41;100.00;95563.13;5015702;28;20025;-67
2023/07/24 03:02:34;;;;;;;10.52;8.18;;;;;;;19.39;100.00;95575.00;5021009;28;20463;-67
2023/07/24 03:05:00;;;;;;;9.00;8.20;;;;;;;19.36;100.00;95594.94;5020981;28;20459;-67
2023/07/24 03:07:25;;;;;;;10.30;8.02;;;;;;;19.11;100.00;95600.75;5022080;28;20686;-67
2023/07/24 03:09:51;;;;;;;10.23;8.85;;;;;;;18.95;100.00;95595.75;5012459;28;20506;-66
2023/07/24 03:12:16;;;;;;;12.73;8.65;;;;;;;18.81;100.00;95568.19;5023327;28;20115;-67
2023/07/24 03:14:42;;;;;;;11.00;8.63;;;;;;;18.79;100.00;95533.69;5016655;28;20022;-67
2023/07/24 03:17:07;;;;;;;9.70;8.35;;;;;;;18.61;100.00;95415.06;5019656;28;20030;-67
2023/07/24 03:19:32;;;;;;;10.45;8.88;;;;;;;18.63;100.00;95334.06;5021502;28;20635;-67
2023/07/24 03:21:58;;;;;;;9.85;8.70;;;;;;;18.65;100.00;95238.72;5014361;28;20032;-66
2023/07/24 03:24:23;;;;;;;8.70;7.85;;;;;;;18.59;100.00;95118.56;5026516;28;20053;-67
2023/07/24 03:26:48;;;;;;;10.13;9.02;;;;;;;18.55;100.00;94961.91;5024651;28;20073;-66
2023/07/24 03:29:14;;;;;;;11.18;7.75;;;;;;;18.48;100.00;94844.69;5027026;28;20021;-66
2023/07/24 03:31:39;;;;;;;11.40;8.35;;;;;;;18.51;100.00;94753.66;5021000;28;20025;-66
2023/07/24 03:34:05;;;;;;;9.30;8.32;;;;;;;18.55;100.00;94628.78;5022808;28;20102;-67
2023/07/24 03:36:30;;;;;;;9.00;8.18;;;;;;;18.38;100.00;94561.91;5024035;28;20072;-66
2023/07/24 03:38:55;;;;;;;9.00;8.20;;;;;;;18.31;100.00;94437.56;5020653;28;20034;-66
2023/07/24 03:41:21;;;;;;;11.45;8.30;;;;;;;18.41;100.00;94172.47;5025884;28;20048;-67
2023/07/24 03:43:46;;;;;;;8.65;7.95;;;;;;;18.40;100.00;94037.66;5022756;28;20023;-66
2023/07/24 03:46:12;;;;;;;10.43;7.78;;;;;;;18.30;100.00;93895.22;5018080;28;20047;-66
2023/07/24 03:48:37;;;;;;;8.23;7.53;;;;;;;18.28;100.00;93633.63;5021383;28;20025;-67
2023/07/24 03:51:02;;;;;;;11.02;7.95;;;;;;;18.32;100.00;93426.19;5015684;28;20033;-66
2023/07/24 03:53:28;;;;;;;9.10;8.27;;;;;;;18.34;100.00;93282.91;5021396;28;20022;-66
2023/07/24 03:55:54;;;;;;;9.32;8.32;;;;;;;18.34;100.00;93168.41;5018756;28;20032;-66
2023/07/24 03:58:19;;;;;;;11.15;8.95;;;;;;;18.33;100.00;93036.31;5020553;28;20089;-66
2023/07/24 04:00:46;;;;;;;9.18;8.27;;;;;;;18.33;100.00;92964.41;5021906;28;20028;-66
2023/07/24 04:03:11;;;;;;;12.00;7.78;;;;;;;18.28;100.00;92908.47;5017370;28;20056;-66
2023/07/24 04:05:37;;;;;;;9.48;7.78;;;;;;;18.32;100.00;92705.31;5024040;28;20017;-66
2023/07/24 04:08:03;;;;;;;9.15;8.27;;;;;;;18.40;100.00;92671.22;5019911;28;20017;-66
2023/07/24 04:10:28;;;;;;;11.32;8.00;;;;;;;18.31;100.00;92448.09;5018068;28;20026;-66
2023/07/24 04:12:54;;;;;;;10.23;8.35;;;;;;;18.30;100.00;92387.91;5015476;28;20021;-67
2023/07/24 04:15:20;;;;;;;8.48;7.68;;;;;;;18.25;100.00;92284.13;5016895;28;20113;-67
2023/07/24 04:17:45;;;;;;;8.90;8.10;;;;;;;18.29;100.00;91986.97;5020321;28;20513;-66
2023/07/24 04:20:11;;;;;;;11.05;8.95;;;;;;;18.35;100.00;91910.50;5014149;28;20029;-66
2023/07/24 04:22:36;;;;;;;10.50;9.10;;;;;;;18.16;100.00;91961.81;5021447;28;20079;-67
2023/07/24 04:25:04;;;;;;;12.80;8.48;;;;;;;17.97;100.00;91947.56;5045063;28;20048;-67
2023/07/24 04:27:30;;;;;;;12.10;7.97;;;;;;;17.87;100.00;92145.31;5023319;28;20138;-66
2023/07/24 04:29:55;;;;;;;10.43;8.70;;;;;;;18.01;100.00;92274.06;5017091;28;20034;-66
2023/07/24 04:32:20;;;;;;;9.50;8.55;;;;;;;18.08;100.00;92183.28;5019922;28;20037;-66
2023/07/24 04:34:46;;;;;;;8.32;7.50;;;;;;;18.12;100.00;91936.78;5017926;28;20074;-66
2023/07/24 04:37:11;;;;;;;14.27;7.80;;;;;;;18.24;100.00;92447.59;5020621;28;20150;-66
2023/07/24 04:39:40;;;;;;;8.95;8.05;;;;;;;18.51;100.00;92776.72;5021479;28;20029;-66
2023/07/24 04:42:05;;;;;;;9.90;8.32;;;;;;;18.42;100.00;92879.50;5020431;28;20025;-66
2023/07/24 04:44:32;;;;;;;12.73;9.23;;;;;;;18.14;100.00;92929.41;5022376;28;20052;-67
2023/07/24 04:46:58;;;;;;;17.92;10.07;;;;;;;17.61;100.00;92977.97;5019772;28;20036;-68
2023/07/24 04:49:24;;;;;;;12.00;9.70;;;;;;;17.23;100.00;92940.63;5025429;28;20025;-67
2023/07/24 04:51:50;;;;;;;10.90;9.73;;;;;;;17.26;100.00;92700.06;5023233;28;20033;-67
2023/07/24 04:54:15;;;;;;;15.55;10.05;;;;;;;17.21;100.00;92354.47;5025343;28;20053;-67
2023/07/24 04:56:40;;;;;;;10.95;8.95;;;;;;;17.22;100.00;91880.31;5021158;28;20485;-67
2023/07/24 04:59:06;;;;;;;20.13;12.30;;;;;;;17.18;100.00;91691.41;5022284;28;20050;-67
2023/07/24 05:01:31;;;;;;;15.88;9.88;;;;;;;17.13;100.00;91490.31;5022945;28;20029;-67
2023/07/24 05:03:57;;;;;;;15.18;9.50;;;;;;;17.13;100.00;91221.97;5024649;28;20108;-68
2023/07/24 05:06:23;;;;;;;14.80;10.63;;;;;;;17.24;100.00;90876.31;5022487;28;20465;-67
2023/07/24 05:08:48;;;;;;;16.85;10.63;;;;;;;17.16;100.00;89778.84;5023568;28;20033;-68
2023/07/24 05:11:14;;;;;;;13.23;9.68;;;;;;;17.14;100.00;90250.41;5026326;28;20107;-67
2023/07/24 05:13:42;;;;;;;15.02;9.88;;;;;;;17.10;100.00;90098.84;5023766;28;20029;-67
2023/07/24 05:16:07;;;;;;;17.25;11.95;;;;;;;17.09;100.00;89668.94;5018521;28;20022;-69
2023/07/24 05:18:33;;;;;;;18.45;11.48;;;;;;;16.96;100.00;89931.00;5022602;28;20433;-68
2023/07/24 05:20:58;;;;;;;18.63;12.10;;;;;;;17.04;100.00;89686.66;5023378;28;20625;-68
2023/07/24 05:23:24;;;;;;;18.75;12.98;;;;;;;17.09;100.00;89493.66;5020456;28;20018;-68
2023/07/24 05:25:59;;;;;;;16.98;12.75;;;;;;;17.04;100.00;89361.91;5016051;28;20036;-68
2023/07/24 05:28:29;;;;;;;22.17;14.55;;;;;;;16.99;100.00;89177.03;5018065;28;20082;-68
2023/07/24 05:30:54;;;;;;;16.38;12.93;;;;;;;17.05;100.00;88901.44;5020303;28;20036;-69
2023/07/24 05:33:20;;;;;;;13.27;10.65;;;;;;;17.11;100.00;88437.28;5022724;28;20022;-69
2023/07/24 05:35:45;;;;;;;14.38;11.10;;;;;;;17.04;100.00;88156.56;5020818;28;20088;-69
2023/07/24 05:38:11;;;;;;;15.10;11.52;;;;;;;17.20;100.00;87879.44;5017670;28;20535;-69
2023/07/24 05:40:36;;;;;;;16.13;12.48;;;;;;;17.04;100.00;87554.81;5020306;28;20059;-68
2023/07/24 05:43:03;;;;;;;18.30;12.75;;;;;;;16.96;100.00;87311.03;5020442;28;20026;-68
2023/07/24 05:45:29;;;;;;;20.88;13.98;;;;;;;17.06;100.00;86997.09;5017888;28;20600;-69
2023/07/24 05:47:54;;;;;;;25.35;13.85;;;;;;;17.03;100.00;86826.16;5020790;28;20021;-68
2023/07/24 05:50:20;;;;;;;18.33;12.63;;;;;;;17.02;100.00;86725.72;5042149;28;20028;-69
2023/07/24 05:52:45;;;;;;;21.75;11.93;;;;;;;16.97;100.00;86670.41;5019874;28;20032;-69
2023/07/24 05:55:11;;;;;;;19.55;12.35;;;;;;;17.06;100.00;86633.53;5023941;28;20705;-68
2023/07/24 05:57:36;;;;;;;18.60;12.85;;;;;;;16.95;100.00;86747.75;5021062;28;20096;-69
2023/07/24 06:00:06;;;;;;;17.35;12.55;;;;;;;16.97;100.00;86840.22;5019054;28;20033;-69
2023/07/24 06:02:31;;;;;;;18.02;11.88;;;;;;;16.89;100.00;87004.78;5019193;28;20398;-69
2023/07/24 06:04:57;;;;;;;18.17;12.32;;;;;;;16.87;100.00;87171.56;5019116;28;20029;-70
2023/07/24 06:07:22;;;;;;;18.65;12.32;;;;;;;16.99;100.00;87243.94;5020839;28;20151;-69
2023/07/24 06:09:48;;;;;;;19.10;12.35;;;;;;;16.87;100.00;87314.84;5022462;28;20029;-69
2023/07/24 06:12:13;;;;;;;21.40;13.32;;;;;;;16.88;100.00;87421.75;5018367;28;20057;-69
2023/07/24 06:14:39;;;;;;;20.95;13.73;;;;;;;16.84;100.00;87413.03;5022169;28;20036;-69
2023/07/24 06:17:04;;;;;;;18.33;12.00;;;;;;;16.78;100.00;87491.47;5019541;28;20050;-69
2023/07/24 06:19:30;;;;;;;15.00;10.63;;;;;;;16.81;100.00;87549.13;5021651;28;20032;-69
2023/07/24 06:21:55;;;;;;;14.52;10.57;;;;;;;16.90;100.00;87558.19;5019281;28;20036;-68
2023/07/24 06:24:21;;;;;;;15.27;12.00;;;;;;;17.06;100.00;87559.00;5022481;28;21083;-69
2023/07/24 06:26:46;;;;;;;16.33;11.73;;;;;;;16.95;100.00;87586.25;5021171;28;20065;-69
2023/07/24 06:29:13;;;;;;;18.13;11.18;;;;;;;16.85;100.00;87637.44;5021541;28;20830;-69
2023/07/24 06:31:39;;;;;;;15.00;10.93;;;;;;;16.96;100.00;87640.84;5019794;28;20025;-69
2023/07/24 06:34:04;;;;;;;15.35;11.20;;;;;;;17.05;100.00;87645.81;5013405;28;20129;-69
2023/07/24 06:36:29;;;;;;;14.98;10.07;;;;;;;17.12;100.00;87647.72;5020091;28;20044;-70
2023/07/24 06:38:55;;;;;;;12.73;10.65;;;;;;;17.20;100.00;87651.13;5039803;28;20072;-69
2023/07/24 06:41:22;;;;;;;14.35;10.60;;;;;;;17.18;100.00;87700.06;5018813;28;20032;-69
2023/07/24 06:43:48;;;;;;;11.63;9.43;;;;;;;17.27;100.00;87744.06;5018368;28;20033;-70
2023/07/24 06:46:13;;;;;;;14.80;10.20;;;;;;;17.38;100.00;87767.97;5014630;28;20172;-70
2023/07/24 06:48:39;;;;;;;13.80;10.05;;;;;;;17.50;100.00;87798.72;5021070;28;20034;-69
2023/07/24 06:51:05;;;;;;;19.10;9.70;;;;;;;17.56;100.00;87818.44;5019912;28;20026;-70
2023/07/24 06:53:30;;;;;;;12.48;9.98;;;;;;;17.51;100.00;87848.03;5017251;28;20034;-69
2023/07/24 06:55:55;;;;;;;13.73;9.82;;;;;;;17.50;100.00;87897.00;5022852;28;20060;-70
2023/07/24 06:58:21;;;;;;;13.68;10.30;;;;;;;17.47;100.00;87967.59;5022761;28;20029;-68
2023/07/24 07:00:46;;;;;;;15.88;9.68;;;;;;;17.52;100.00;88000.97;5017143;28;20375;-69
2023/07/24 07:03:12;;;;;;;10.60;8.95;;;;;;;17.56;100.00;88020.34;5043147;28;20046;-69
2023/07/24 07:05:37;;;;;;;13.80;9.98;;;;;;;17.45;100.00;88103.41;5016878;28;20108;-69
2023/07/24 07:08:03;;;;;;;18.77;10.10;;;;;;;17.45;100.00;88116.69;5019703;28;20030;-68
2023/07/24 07:10:28;;;;;;;15.27;10.10;;;;;;;17.56;100.00;88130.03;5024910;28;20026;-69
2023/07/24 07:12:54;;;;;;;13.32;9.77;;;;;;;17.61;100.00;88150.19;5020957;28;20109;-68
2023/07/24 07:15:20;;;;;;;12.93;9.32;;;;;;;17.70;100.00;88187.81;5023614;28;20475;-69
2023/07/24 07:17:45;;;;;;;14.77;9.07;;;;;;;17.73;100.00;88184.44;5018956;28;20060;-69
2023/07/24 07:20:11;;;;;;;14.73;9.73;;;;;;;17.72;100.00;88224.66;5021337;28;20061;-69
2023/07/24 07:22:36;;;;;;;12.95;9.30;;;;;;;17.75;100.00;88261.88;5019193;28;20025;-68
2023/07/24 07:25:01;;;;;;;16.02;10.13;;;;;;;17.72;100.00;88326.41;5027185;28;20048;-69
2023/07/24 07:27:27;;;;;;;13.30;9.70;;;;;;;17.70;100.00;88368.53;5021694;28;20128;-69
2023/07/24 07:29:52;;;;;;;10.68;9.30;;;;;;;17.73;100.00;88369.69;5020031;28;20105;-69
2023/07/24 07:32:18;;;;;;;13.65;9.35;;;;;;;17.84;100.00;88353.84;5024260;28;20029;-68
2023/07/24 07:34:43;;;;;;;10.75;8.80;;;;;;;17.90;100.00;88397.56;5019353;28;20029;-69
2023/07/24 07:37:08;;;;;;;13.20;9.27;;;;;;;17.99;100.00;88445.13;5018466;28;20036;-68
2023/07/24 07:39:34;;;;;;;12.05;9.40;;;;;;;18.04;100.00;88436.84;5019732;28;20080;-68
2023/07/24 07:41:59;;;;;;;12.63;9.05;;;;;;;18.04;100.00;88458.91;5012887;28;20026;-68
2023/07/24 07:44:24;;;;;;;12.52;9.40;;;;;;;17.96;100.00;88520.31;5021736;28;20037;-68
2023/07/24 07:46:50;;;;;;;11.90;9.50;;;;;;;18.03;100.00;88547.00;5024202;28;20026;-68
2023/07/24 07:49:15;;;;;;;13.25;9.32;;;;;;;18.08;100.00;88567.19;5026034;28;20053;-68
2023/07/24 07:51:40;;;;;;;11.30;8.75;;;;;;;18.12;100.00;88573.31;5017661;28;20022;-68
2023/07/24 07:54:06;;;;;;;12.95;9.18;;;;;;;18.20;100.00;88580.22;5020199;28;20057;-68
2023/07/24 07:56:31;;;;;;;16.48;8.70;;;;;;;18.26;100.00;88610.72;5017555;28;20041;-71
2023/07/24 07:58:57;;;;;;;12.35;9.18;;;;;;;18.29;100.00;88649.09;5020224;28;20042;-71
2023/07/24 08:01:22;;;;;;;10.20;9.30;;;;;;;18.35;100.00;88684.16;5017217;28;20041;-72
2023/07/24 08:03:47;;;;;;;11.75;9.55;;;;;;;18.31;100.00;88726.66;5012886;28;20036;-71
2023/07/24 08:06:13;;;;;;;10.32;9.27;;;;;;;18.44;100.00;88719.22;5020828;28;20089;-72
2023/07/24 08:08:38;;;;;;;13.57;9.23;;;;;;;18.42;100.00;88732.91;5020978;28;20025;-72
2023/07/24 08:11:07;;;;;;;11.13;9.23;;;;;;;18.50;100.00;88739.09;5023798;28;20026;-71
2023/07/24 08:13:36;;;;;;;18.25;9.57;;;;;;;18.67;100.00;88734.31;5020429;28;20079;-72
2023/07/24 08:16:03;;;;;;;11.82;9.07;;;;;;;18.80;100.00;88745.53;5022377;28;20034;-72
2023/07/24 08:18:31;;;;;;;13.07;9.38;;;;;;;18.85;100.00;88769.91;5020500;28;20038;-71
2023/07/24 08:20:56;;;;;;;10.50;9.15;;;;;;;18.83;100.00;88830.00;5018329;28;20021;-72
2023/07/24 08:23:22;;;;;;;14.20;8.85;;;;;;;18.86;100.00;88887.84;5022334;28;20486;-73
2023/07/24 08:25:52;;;;;;;10.65;9.13;;;;;;;18.94;100.00;88942.72;5018267;28;20056;-72
2023/07/24 08:28:17;;;;;;;11.68;9.52;;;;;;;19.01;100.00;88996.16;5017712;28;20501;-72
2023/07/24 08:30:43;;;;;;;13.95;8.93;;;;;;;18.97;100.00;89075.16;5018065;28;20026;-72
2023/07/24 08:33:08;;;;;;;11.00;8.90;;;;;;;18.96;100.00;89152.78;5018029;28;20046;-71
2023/07/24 08:35:33;;;;;;;15.43;8.63;;;;;;;18.93;100.00;89218.16;5020648;28;20060;-73
2023/07/24 08:37:59;;;;;;;16.30;9.45;;;;;;;18.93;100.00;89281.31;5021063;28;20029;-72
2023/07/24 08:40:24;;;;;;;11.15;8.85;;;;;;;18.94;100.00;89310.22;5019480;28;20029;-71
2023/07/24 08:42:52;;;;;;;12.60;9.15;;;;;;;18.96;100.00;89360.50;5018489;28;20040;-72
2023/07/24 08:45:19;;;;;;;11.77;8.68;;;;;;;18.96;100.00;89406.53;5020280;28;20021;-72
2023/07/24 08:47:45;;;;;;;10.40;9.30;;;;;;;18.96;100.00;89435.06;5017589;28;20025;-72
2023/07/24 08:50:15;;;;;;;14.52;9.40;;;;;;;18.97;100.00;89464.00;5024288;28;20053;-72
2023/07/24 08:52:42;;;;;;;11.80;9.35;;;;;;;18.95;100.00;89513.44;5020824;28;20065;-72
2023/07/24 08:55:08;;;;;;;11.38;8.80;;;;;;;18.93;100.00;89555.63;5018959;28;20507;-72
2023/07/24 08:57:34;;;;;;;10.98;9.15;;;;;;;18.95;100.00;89598.66;5021689;28;20026;-72
2023/07/24 09:00:00;;;;;;;15.65;10.10;;;;;;;18.99;100.00;89602.22;5019101;28;20079;-72
2023/07/24 09:02:26;;;;;;;11.73;9.25;;;;;;;18.97;100.00;89612.41;5020371;28;20026;-72
2023/07/24 09:04:51;;;;;;;10.93;9.65;;;;;;;19.02;100.00;89612.16;5019747;28;20087;-71
2023/07/24 09:07:17;;;;;;;9.93;8.93;;;;;;;19.08;100.00;89616.13;5017229;28;20037;-72
2023/07/24 09:09:42;;;;;;;13.05;8.75;;;;;;;19.03;100.00;89619.84;5022969;28;20033;-73
2023/07/24 09:12:08;;;;;;;13.55;9.10;;;;;;;19.08;100.00;89602.81;5022325;28;20040;-72
2023/07/24 09:14:33;;;;;;;10.18;8.88;;;;;;;19.09;100.00;89619.56;5021862;28;20107;-71
2023/07/24 09:17:07;;;;;;;13.68;9.00;;;;;;;19.27;100.00;89604.00;5021590;28;20128;-71
2023/07/24 09:19:33;;;;;;;12.60;8.77;;;;;;;19.41;100.00;89614.22;5018358;28;20102;-72
2023/07/24 09:22:14;;;;;;;11.23;8.82;;;;;;;19.49;100.00;89639.16;5017724;28;20030;-71
2023/07/24 09:24:52;;;;;;;9.23;7.97;;;;;;;19.50;100.00;89696.69;5014854;28;20026;-70
2023/07/24 09:27:18;;;;;;;11.85;8.68;;;;;;;19.50;100.00;89771.34;5020945;28;20042;-72
2023/07/24 09:29:43;;;;;;;10.88;9.05;;;;;;;19.49;100.00;89833.75;5019841;28;20140;-72
2023/07/24 09:32:27;;;;;;;13.27;8.23;;;;;;;19.46;100.00;89909.88;5022801;28;20029;-73
2023/07/24 09:34:56;;;;;;;11.60;7.90;;;;;;;19.41;100.00;90006.06;5015421;28;20037;-72
2023/07/24 09:37:31;;;;;;;10.30;8.75;;;;;;;19.33;100.00;90088.47;5023417;28;20030;-71
2023/07/24 09:39:56;;;;;;;12.25;8.65;;;;;;;19.42;100.00;90144.34;5016007;28;20532;-72
2023/07/24 09:42:32;;;;;;;9.75;7.88;;;;;;;19.80;100.00;90144.34;5020684;28;20034;-71
2023/07/24 09:44:58;;;;;;;10.45;7.47;;;;;;;19.92;100.00;90203.06;5018311;28;20041;-71
2023/07/24 09:47:23;;;;;;;9.43;8.13;;;;;;;20.08;100.00;90237.84;5021506;28;20021;-71
2023/07/24 09:49:50;;;;;;;10.18;8.65;;;;;;;20.36;100.00;90241.72;5017445;28;20057;-70
2023/07/24 09:52:18;;;;;;;11.05;8.70;;;;;;;21.12;100.00;90185.88;5043334;28;20052;-72
2023/07/24 09:55:32;;;;;;;8.65;7.75;;;;;;;21.82;100.00;90250.69;5015958;28;20021;-71
2023/07/24 09:58:00;;;;;;;10.23;8.02;;;;;;;22.50;100.00;90411.47;5015824;28;20038;-71
2023/07/24 10:00:25;;;;;;;11.25;7.63;;;;;;;22.57;100.00;90652.78;5016631;28;20025;-72
2023/07/24 10:02:51;;;;;;;11.82;7.70;;;;;;;22.71;100.00;90903.53;5021488;28;20431;-70
2023/07/24 10:05:17;;;;;;;12.07;6.90;;;;;;;23.21;100.00;91070.59;5022150;28;20068;-72
2023/07/24 10:07:43;;;;;;;10.15;7.40;;;;;;;23.82;100.00;91265.03;5041196;28;20030;-70
2023/07/24 10:10:09;;;;;;;9.52;6.13;;;;;;;24.25;100.00;91450.25;5019720;28;20034;-71
2023/07/24 10:12:36;;;;;;;11.23;6.25;;;;;;;24.61;100.00;91635.06;5020859;28;20022;-71
2023/07/24 10:15:05;;;;;;;8.40;5.90;;;;;;;24.97;100.00;91806.94;5013665;28;20045;-72
2023/07/24 10:17:38;;;;;;;6.88;6.07;;;;;;;25.32;100.00;91947.44;5015606;28;20061;-72
2023/07/24 10:20:11;;;;;;;7.88;5.60;;;;;;;25.50;100.00;92108.91;5017201;28;20030;-72
2023/07/24 10:22:41;;;;;;;6.38;5.72;;;;;;;25.40;100.00;92201.53;5019172;28;20033;-72
2023/07/24 10:25:08;;;;;;;12.50;5.47;;;;;;;25.79;100.00;92260.09;5023585;28;20086;-71
2023/07/24 10:27:43;;;;;;;9.38;5.38;;;;;;;25.69;100.00;92412.84;5017231;28;20043;-72
2023/07/24 10:30:09;;;;;;;6.70;5.80;;;;;;;25.55;100.00;92533.41;5018135;28;20034;-72
2023/07/24 10:32:45;;;;;;;9.18;5.80;;;;;;;24.94;100.00;92638.84;5016977;28;20036;-70
2023/07/24 10:35:10;;;;;;;11.13;5.75;;;;;;;24.97;100.00;92641.72;5020179;28;20029;-72
2023/07/24 10:37:37;;;;;;;6.70;5.65;;;;;;;24.82;100.00;92704.75;5023134;28;20037;-72
2023/07/24 10:40:04;;;;;;;8.43;5.28;;;;;;;24.04;100.00;92751.25;5022317;28;20025;-71
2023/07/24 10:42:33;;;;;;;9.15;5.63;;;;;;;23.52;100.00;92740.59;5020533;28;20049;-70
2023/07/24 10:45:08;;;;;;;7.93;6.07;;;;;;;23.34;100.00;92702.81;5019809;28;20029;-70
2023/07/24 10:47:34;;;;;;;7.80;5.57;;;;;;;23.91;100.00;92682.97;5025270;28;20021;-71
2023/07/24 10:50:02;;;;;;;6.55;5.40;;;;;;;24.39;100.00;92703.25;5023678;28;20021;-71
2023/07/24 10:52:32;;;;;;;10.00;6.15;;;;;;;24.85;100.00;92731.03;5021028;28;20410;-69
2023/07/24 10:55:01;;;;;;;9.02;6.25;;;;;;;24.80;100.00;92817.25;5025867;28;20029;-70
2023/07/24 10:57:27;;;;;;;5.70;5.13;;;;;;;24.43;100.00;92844.03;5022322;28;20603;-70
2023/07/24 10:59:53;;;;;;;12.38;5.63;;;;;;;24.17;100.00;92886.69;5024403;28;20026;-70
2023/07/24 11:02:18;;;;;;;6.97;5.70;;;;;;;23.92;100.00;92923.63;5018694;28;20060;-70
2023/07/24 11:04:44;;;;;;;7.85;5.25;;;;;;;24.41;100.00;92916.13;5018753;28;20064;-70
2023/07/24 11:07:09;;;;;;;9.38;5.88;;;;;;;25.09;100.00;92918.38;5020478;28;20450;-71
2023/07/24 11:09:40;;;;;;;8.88;5.80;;;;;;;25.60;100.00;92964.94;5027506;28;20056;-71
2023/07/24 11:12:13;;;;;;;7.22;5.75;;;;;;;25.60;100.00;93053.81;5005328;28;20084;-71
2023/07/24 11:14:49;;;;;;;7.30;5.22;;;;;;;25.16;100.00;93131.38;5021257;28;20056;-72
2023/07/24 11:17:14;;;;;;;5.93;5.30;;;;;;;24.80;100.00;93158.88;5021149;28;20569;-70